Time;durP1;ratioP1;P1;durP2;ratioP2;P2;SDS_P1;SDS_P2;PMS_P1;PMS_P2;Temp;Humidity;BMP_temperature;BMP_pressure;BME280_temperature;BME280_humidity;BME280_pressure;Samples;Min_cycle;Max_cycle;Signal;HPM_P1;HPM_P2
2022/03/05 00:00:49;;;;;;;6.57;2.25;;;12.50;98.60;;;;;;5032522;28;20767;-75
2022/03/05 00:03:15;;;;;;;5.43;1.60;;;12.40;98.80;;;;;;5030230;28;20049;-77
2022/03/05 00:05:42;;;;;;;9.77;1.98;;;12.40;98.60;;;;;;5048830;28;20796;-76
2022/03/05 00:08:09;;;;;;;9.10;2.05;;;12.40;98.80;;;;;;5045119;28;20045;-75
2022/03/05 00:10:36;;;;;;;5.50;1.77;;;12.30;98.90;;;;;;5037628;28;20116;-75
2022/03/05 00:13:04;;;;;;;5.97;2.00;;;12.30;98.90;;;;;;5049386;28;20044;-75
2022/03/05 00:15:30;;;;;;;7.68;2.00;;;12.30;98.80;;;;;;5037610;28;20425;-73
2022/03/05 00:17:56;;;;;;;8.10;1.88;;;12.30;98.90;;;;;;5051737;28;20048;-74
2022/03/05 00:20:23;;;;;;;8.45;1.95;;;12.30;99.00;;;;;;5041195;28;20087;-75
2022/03/05 00:22:53;;;;;;;9.35;1.85;;;12.20;99.00;;;;;;5039684;28;20035;-75
2022/03/05 00:25:21;;;;;;;5.90;1.65;;;12.20;99.00;;;;;;5036548;28;20171;-75
2022/03/05 00:27:47;;;;;;;7.15;2.10;;;12.20;99.00;;;;;;5051625;28;20568;-74
2022/03/05 00:30:14;;;;;;;6.40;1.70;;;12.20;99.00;;;;;;5034171;28;20037;-74
2022/03/05 00:32:42;;;;;;;8.00;1.73;;;12.10;98.80;;;;;;5043255;28;20465;-73
2022/03/05 00:35:08;;;;;;;5.63;1.90;;;12.10;99.10;;;;;;5052119;28;20132;-73
2022/03/05 00:37:35;;;;;;;6.93;1.90;;;12.10;99.10;;;;;;5054540;28;20033;-75
2022/03/05 00:40:01;;;;;;;7.05;1.70;;;12.10;99.10;;;;;;5043093;28;20037;-73
2022/03/05 00:42:27;;;;;;;5.88;1.80;;;12.10;99.20;;;;;;5039038;28;20476;-74
2022/03/05 00:44:53;;;;;;;5.32;1.55;;;12.10;99.20;;;;;;5037955;28;20033;-74
2022/03/05 00:47:20;;;;;;;6.00;1.80;;;12.00;99.00;;;;;;5035455;28;20431;-73
2022/03/05 00:49:47;;;;;;;6.97;1.88;;;12.00;98.90;;;;;;5037773;28;20037;-74
2022/03/05 00:52:13;;;;;;;5.00;1.70;;;12.10;98.70;;;;;;5037536;28;20121;-75
2022/03/05 00:54:39;;;;;;;4.82;1.55;;;12.10;98.90;;;;;;5037173;28;20127;-75
2022/03/05 00:57:05;;;;;;;5.53;1.30;;;12.00;98.80;;;;;;5052444;28;20029;-74
2022/03/05 00:59:32;;;;;;;7.53;1.42;;;12.00;98.80;;;;;;5036026;28;20117;-74
2022/03/05 01:01:58;;;;;;;2.67;1.13;;;12.00;98.90;;;;;;5053086;28;20037;-75
2022/03/05 01:04:24;;;;;;;6.53;1.30;;;12.00;98.80;;;;;;5036158;28;20079;-74
2022/03/05 01:06:50;;;;;;;5.93;1.35;;;12.00;98.80;;;;;;5039920;28;20369;-74
2022/03/05 01:09:16;;;;;;;4.65;1.50;;;11.90;98.90;;;;;;5039221;28;20090;-74
2022/03/05 01:11:42;;;;;;;4.57;1.20;;;11.90;98.90;;;;;;5050215;28;20034;-75
2022/03/05 01:14:08;;;;;;;5.45;1.75;;;11.90;99.00;;;;;;5035174;28;20090;-73
2022/03/05 01:16:34;;;;;;;5.85;1.50;;;11.90;99.00;;;;;;5051426;28;20114;-74
2022/03/05 01:19:01;;;;;;;6.80;1.65;;;11.90;99.00;;;;;;5056024;28;20039;-75
2022/03/05 01:21:27;;;;;;;4.47;1.45;;;11.80;98.90;;;;;;5032720;28;20037;-74
2022/03/05 01:23:54;;;;;;;6.47;1.40;;;11.90;98.80;;;;;;5040049;28;20037;-74
2022/03/05 01:26:21;;;;;;;3.83;1.05;;;11.90;98.70;;;;;;5047015;28;20091;-73
2022/03/05 01:28:46;;;;;;;6.95;1.40;;;11.90;98.70;;;;;;5033814;28;20044;-75
2022/03/05 01:31:15;;;;;;;7.32;1.38;;;11.90;98.70;;;;;;5033517;28;20397;-74
2022/03/05 01:33:41;;;;;;;3.83;1.10;;;11.90;98.70;;;;;;5044075;28;20044;-75
2022/03/05 01:36:07;;;;;;;7.00;1.20;;;11.90;98.60;;;;;;5042181;28;20535;-76
2022/03/05 01:38:33;;;;;;;3.78;1.10;;;11.80;98.70;;;;;;5033745;28;20041;-74
2022/03/05 01:41:00;;;;;;;5.78;1.05;;;11.80;99.00;;;;;;5052684;28;20044;-75
2022/03/05 01:43:26;;;;;;;4.65;1.20;;;11.80;98.70;;;;;;5037325;28;20034;-75
2022/03/05 01:45:52;;;;;;;5.95;1.00;;;11.90;98.70;;;;;;5038925;28;20033;-74
2022/03/05 01:48:18;;;;;;;3.95;1.42;;;11.90;98.70;;;;;;5051220;28;20037;-74
2022/03/05 01:50:44;;;;;;;7.18;1.45;;;11.80;98.80;;;;;;5035636;28;20036;-74
2022/03/05 01:53:10;;;;;;;4.82;1.00;;;11.80;98.90;;;;;;5035752;28;20541;-74
2022/03/05 01:55:37;;;;;;;4.25;1.00;;;11.80;99.00;;;;;;5052603;28;20037;-74
2022/03/05 01:58:03;;;;;;;4.03;1.02;;;11.80;99.00;;;;;;5034316;28;20044;-74
2022/03/05 02:00:29;;;;;;;2.72;1.10;;;11.70;99.20;;;;;;5034991;28;20541;-74
2022/03/05 02:02:55;;;;;;;5.22;1.17;;;11.70;99.30;;;;;;5051971;28;20032;-74
2022/03/05 02:05:23;;;;;;;5.68;1.20;;;11.60;99.30;;;;;;5033752;28;20037;-73
2022/03/05 02:07:50;;;;;;;2.45;0.88;;;11.60;99.40;;;;;;5050750;28;20380;-73
2022/03/05 02:10:17;;;;;;;5.45;1.23;;;11.60;99.50;;;;;;5049709;28;20034;-73
2022/03/05 02:12:44;;;;;;;5.95;1.40;;;11.60;99.50;;;;;;5049836;28;20389;-74
2022/03/05 02:15:11;;;;;;;4.13;1.00;;;11.60;99.50;;;;;;5036931;28;20392;-74
2022/03/05 02:17:38;;;;;;;4.00;1.23;;;11.50;99.60;;;;;;5049783;28;20120;-74
2022/03/05 02:20:05;;;;;;;4.28;0.98;;;11.50;99.70;;;;;;5020626;28;20049;-73
2022/03/05 02:22:31;;;;;;;2.80;0.65;;;11.50;99.70;;;;;;5051726;28;20029;-74
2022/03/05 02:24:59;;;;;;;3.70;1.15;;;11.50;99.80;;;;;;5052669;28;20504;-73
2022/03/05 02:27:27;;;;;;;3.60;1.02;;;11.50;99.80;;;;;;5040588;28;20038;-74
2022/03/05 02:29:55;;;;;;;3.42;1.20;;;11.40;99.80;;;;;;5043405;28;20561;-75
2022/03/05 02:32:21;;;;;;;4.57;0.93;;;11.40;99.90;;;;;;5040609;28;20041;-74
2022/03/05 02:34:49;;;;;;;2.50;1.10;;;11.40;99.90;;;;;;5026055;28;20037;-75
2022/03/05 02:37:17;;;;;;;3.58;1.13;;;11.40;99.90;;;;;;5058337;28;20037;-74
2022/03/05 02:39:45;;;;;;;5.82;1.10;;;11.30;99.90;;;;;;5040090;28;20103;-75
2022/03/05 02:42:13;;;;;;;3.45;0.90;;;11.30;99.90;;;;;;5056003;28;20037;-75
2022/03/05 02:44:40;;;;;;;3.35;0.90;;;11.20;99.90;;;;;;5041999;28;20029;-74
2022/03/05 02:47:07;;;;;;;2.97;0.93;;;11.20;99.90;;;;;;5040124;28;20116;-74
2022/03/05 02:49:34;;;;;;;4.90;1.27;;;11.20;99.90;;;;;;5027544;28;20036;-74
2022/03/05 02:51:59;;;;;;;4.57;0.98;;;11.30;99.90;;;;;;5042457;28;20131;-75
2022/03/05 02:54:27;;;;;;;6.45;1.20;;;11.20;99.90;;;;;;5041201;28;20093;-75
2022/03/05 02:56:53;;;;;;;4.25;0.90;;;11.20;99.90;;;;;;5052341;28;20056;-74
2022/03/05 02:59:20;;;;;;;3.33;1.00;;;11.20;99.90;;;;;;5045993;28;20034;-74
2022/03/05 03:01:46;;;;;;;2.45;0.93;;;11.20;99.90;;;;;;5039486;28;20037;-74
2022/03/05 03:04:12;;;;;;;3.08;1.00;;;11.20;99.90;;;;;;5037299;28;20513;-74
2022/03/05 03:06:38;;;;;;;4.43;1.00;;;11.20;99.90;;;;;;5042941;28;20033;-74
2022/03/05 03:09:05;;;;;;;5.03;1.05;;;11.20;99.90;;;;;;5026189;28;20048;-74
2022/03/05 03:11:31;;;;;;;3.58;1.10;;;11.20;99.90;;;;;;5045888;28;20041;-75
2022/03/05 03:13:56;;;;;;;5.53;1.13;;;11.20;99.90;;;;;;5057638;28;20138;-74
2022/03/05 03:16:23;;;;;;;2.45;1.20;;;11.20;99.90;;;;;;5037603;28;20041;-73
2022/03/05 03:18:50;;;;;;;5.28;1.02;;;11.20;99.90;;;;;;5040305;28;20043;-74
2022/03/05 03:21:16;;;;;;;5.85;1.20;;;11.20;99.90;;;;;;5052250;28;20115;-74
2022/03/05 03:23:42;;;;;;;2.55;0.80;;;11.20;99.90;;;;;;5043068;28;20037;-75
2022/03/05 03:26:08;;;;;;;6.72;1.08;;;11.10;99.90;;;;;;5038940;28;20048;-74
2022/03/05 03:28:34;;;;;;;5.45;1.20;;;11.10;99.90;;;;;;5037470;28;20488;-75
2022/03/05 03:31:00;;;;;;;6.07;1.02;;;11.10;99.90;;;;;;5059509;28;20044;-74
2022/03/05 03:33:27;;;;;;;2.83;0.90;;;11.10;99.90;;;;;;5038224;28;20065;-74
2022/03/05 03:35:53;;;;;;;3.30;0.93;;;11.10;99.90;;;;;;5047604;28;20041;-74
2022/03/05 03:38:19;;;;;;;2.65;0.90;;;11.10;99.90;;;;;;5039411;28;20055;-74
2022/03/05 03:40:46;;;;;;;4.75;1.27;;;11.10;99.90;;;;;;5038436;28;20076;-74
2022/03/05 03:43:12;;;;;;;2.58;0.70;;;11.10;99.90;;;;;;5039471;28;20116;-74
2022/03/05 03:45:39;;;;;;;4.03;1.40;;;11.10;99.90;;;;;;5052759;28;20041;-74
2022/03/05 03:48:06;;;;;;;3.40;1.00;;;11.10;99.90;;;;;;5042774;28;20045;-73
2022/03/05 03:50:31;;;;;;;4.68;1.10;;;11.00;99.90;;;;;;5039512;28;20029;-74
2022/03/05 03:52:58;;;;;;;2.83;0.80;;;11.00;99.90;;;;;;5043627;28;20039;-75
2022/03/05 03:55:24;;;;;;;2.88;1.00;;;11.00;99.90;;;;;;5035469;28;20175;-74
2022/03/05 03:57:50;;;;;;;9.52;1.55;;;10.90;99.90;;;;;;5055760;28;20043;-73
2022/03/05 04:00:18;;;;;;;4.05;1.20;;;10.90;99.90;;;;;;5036051;28;20124;-75
2022/03/05 04:02:44;;;;;;;4.93;1.00;;;10.90;99.90;;;;;;5038522;28;20131;-74
2022/03/05 04:05:11;;;;;;;3.00;0.70;;;10.90;99.90;;;;;;5035874;28;20115;-74
2022/03/05 04:10:24;;;;;;;4.57;1.10;;;10.90;99.90;;;;;;5034957;28;20179;-74
2022/03/05 04:12:50;;;;;;;5.13;1.20;;;10.90;99.90;;;;;;5036524;28;20049;-73
2022/03/05 04:15:17;;;;;;;3.67;0.98;;;10.90;99.90;;;;;;5050935;28;20041;-74
2022/03/05 04:17:43;;;;;;;4.53;0.93;;;11.00;99.90;;;;;;5050815;28;20025;-74
2022/03/05 04:20:10;;;;;;;5.80;1.00;;;10.90;99.90;;;;;;5039524;28;20065;-74
2022/03/05 04:22:39;;;;;;;2.70;1.27;;;10.90;99.90;;;;;;5040679;28;20037;-75
2022/03/05 04:25:06;;;;;;;2.60;1.13;;;10.80;99.90;;;;;;5053087;28;20048;-74
2022/03/05 04:27:32;;;;;;;4.03;1.10;;;10.80;99.90;;;;;;5040249;28;20037;-74
2022/03/05 04:29:58;;;;;;;5.38;1.17;;;10.80;99.90;;;;;;5053324;28;20365;-75
2022/03/05 04:32:24;;;;;;;2.92;1.10;;;10.70;99.90;;;;;;5037016;28;20044;-73
2022/03/05 04:34:51;;;;;;;2.75;1.00;;;10.70;99.90;;;;;;5053455;28;20059;-74
2022/03/05 04:37:16;;;;;;;3.88;0.90;;;10.70;99.90;;;;;;5040579;28;20455;-74
2022/03/05 04:39:42;;;;;;;3.03;1.05;;;10.80;99.90;;;;;;5043587;28;20043;-74
2022/03/05 04:42:09;;;;;;;5.40;1.13;;;10.80;99.90;;;;;;5056649;28;20516;-73
2022/03/05 04:44:34;;;;;;;5.63;1.42;;;10.70;99.90;;;;;;5036669;28;20037;-74
2022/03/05 04:47:00;;;;;;;5.03;1.25;;;10.80;99.90;;;;;;5054951;28;20041;-74
2022/03/05 04:49:27;;;;;;;7.28;1.15;;;10.80;99.90;;;;;;5037933;28;20047;-73
2022/03/05 04:51:53;;;;;;;4.93;1.27;;;10.80;99.90;;;;;;5030407;28;20511;-74
2022/03/05 04:54:20;;;;;;;3.10;1.13;;;10.80;99.90;;;;;;5048030;28;20037;-74
2022/03/05 04:56:47;;;;;;;6.55;1.17;;;10.70;99.90;;;;;;5037686;28;20090;-74
2022/03/05 04:59:14;;;;;;;5.65;1.05;;;10.70;99.90;;;;;;5052223;28;20497;-75
2022/03/05 05:01:40;;;;;;;3.88;1.40;;;10.60;99.90;;;;;;5049256;28;20424;-73
2022/03/05 05:04:06;;;;;;;5.97;0.80;;;10.60;99.90;;;;;;5036528;28;20039;-73
2022/03/05 05:06:31;;;;;;;4.05;1.10;;;10.60;99.90;;;;;;5053788;28;20508;-75
2022/03/05 05:08:57;;;;;;;8.63;1.73;;;10.60;99.90;;;;;;5038575;28;20056;-75
2022/03/05 05:11:23;;;;;;;2.33;1.00;;;10.50;99.90;;;;;;5036007;28;20530;-73
2022/03/05 05:13:49;;;;;;;6.68;1.10;;;10.50;99.90;;;;;;5036195;28;20029;-74
2022/03/05 05:16:16;;;;;;;3.00;1.10;;;10.40;99.90;;;;;;5032896;28;20118;-74
2022/03/05 05:19:24;;;;;;;3.47;1.17;;;10.40;99.90;;;;;;5036575;28;20163;-75
2022/03/05 05:21:28;;;;;;;5.07;1.20;;;10.40;99.90;;;;;;5035591;28;20053;-74
2022/03/05 05:23:54;;;;;;;3.35;1.00;;;10.30;99.90;;;;;;5037658;28;20088;-74
2022/03/05 05:26:20;;;;;;;5.63;1.10;;;10.30;99.90;;;;;;5037105;28;20049;-74
2022/03/05 05:28:47;;;;;;;5.82;1.27;;;10.40;99.90;;;;;;5038423;28;20052;-74
2022/03/05 05:31:14;;;;;;;3.13;1.17;;;10.40;99.90;;;;;;5052720;28;20115;-73
2022/03/05 05:33:44;;;;;;;4.80;1.55;;;10.50;99.90;;;;;;5052106;28;20044;-74
2022/03/05 05:36:11;;;;;;;3.30;1.00;;;10.50;99.90;;;;;;5038034;28;20037;-74
2022/03/05 05:38:36;;;;;;;3.58;1.23;;;10.50;99.90;;;;;;5034584;28;20033;-74
2022/03/05 05:41:02;;;;;;;3.95;1.40;;;10.50;99.90;;;;;;5052771;28;20033;-73
2022/03/05 05:43:28;;;;;;;3.03;1.00;;;10.50;99.90;;;;;;5018402;28;20044;-74
2022/03/05 05:45:54;;;;;;;2.13;0.98;;;10.60;99.90;;;;;;5037967;28;20397;-74
2022/03/05 05:48:20;;;;;;;2.13;0.95;;;10.60;99.90;;;;;;5069891;28;20064;-76
2022/03/05 05:50:46;;;;;;;2.90;1.20;;;10.50;99.90;;;;;;5041345;28;20040;-74
2022/03/05 05:53:13;;;;;;;4.13;0.80;;;10.50;99.90;;;;;;5035468;28;20172;-74
2022/03/05 05:55:39;;;;;;;4.82;1.05;;;10.50;99.90;;;;;;5044126;28;20396;-74
2022/03/05 05:58:06;;;;;;;6.05;1.23;;;10.50;99.90;;;;;;5050562;28;20033;-74
2022/03/05 06:00:32;;;;;;;3.63;1.15;;;10.50;99.90;;;;;;5034106;28;20056;-75
2022/03/05 06:02:59;;;;;;;4.03;1.50;;;10.50;99.90;;;;;;5036182;28;20034;-74
2022/03/05 06:05:25;;;;;;;3.03;1.13;;;10.50;99.90;;;;;;5049224;28;20388;-74
2022/03/05 06:07:51;;;;;;;5.68;1.30;;;10.50;99.90;;;;;;5036679;28;20048;-75
2022/03/05 06:10:18;;;;;;;4.78;1.40;;;10.50;99.90;;;;;;5033739;28;20040;-74
2022/03/05 06:12:45;;;;;;;6.03;1.42;;;10.50;99.90;;;;;;5036439;28;20128;-74
2022/03/05 06:15:11;;;;;;;4.90;1.45;;;10.50;99.90;;;;;;5041536;28;20123;-74
2022/03/05 06:17:45;;;;;;;3.78;1.20;;;10.50;99.90;;;;;;5037878;28;20037;-75
2022/03/05 06:20:11;;;;;;;7.00;1.50;;;10.40;99.90;;;;;;5050217;28;20512;-75
2022/03/05 06:22:39;;;;;;;5.38;1.23;;;10.30;99.90;;;;;;5038188;28;20117;-74
2022/03/05 06:25:05;;;;;;;4.93;1.38;;;10.30;99.90;;;;;;5035242;28;20126;-75
2022/03/05 06:27:32;;;;;;;4.00;1.17;;;10.30;99.90;;;;;;5035435;28;20524;-75
2022/03/05 06:29:58;;;;;;;3.47;1.10;;;10.30;99.90;;;;;;5051632;28;20188;-74
2022/03/05 06:32:24;;;;;;;2.33;1.00;;;10.40;99.90;;;;;;5034803;28;20041;-75
2022/03/05 06:34:54;;;;;;;4.28;1.02;;;10.40;99.90;;;;;;5040625;28;20034;-74
2022/03/05 06:37:22;;;;;;;5.97;1.25;;;10.40;99.90;;;;;;5033545;28;20037;-75
2022/03/05 06:39:48;;;;;;;5.40;1.27;;;10.40;99.90;;;;;;5033995;28;20037;-75
2022/03/05 06:42:16;;;;;;;4.63;1.20;;;10.40;99.90;;;;;;5052062;28;20065;-75
2022/03/05 06:44:43;;;;;;;5.88;1.20;;;10.40;99.90;;;;;;5054683;28;20785;-74
2022/03/05 06:47:09;;;;;;;3.60;1.13;;;10.50;99.90;;;;;;5039349;28;20032;-75
2022/03/05 06:49:35;;;;;;;4.97;1.40;;;10.60;99.90;;;;;;5034543;28;20041;-75
2022/03/05 06:52:01;;;;;;;4.47;1.17;;;10.60;99.90;;;;;;5050647;28;20108;-74
2022/03/05 06:54:27;;;;;;;5.13;1.20;;;10.60;99.90;;;;;;5033653;28;20055;-75
2022/03/05 06:56:53;;;;;;;5.88;1.25;;;10.60;99.90;;;;;;5054028;28;20453;-74
2022/03/05 06:59:20;;;;;;;3.10;1.25;;;10.70;99.90;;;;;;5053298;28;20033;-75
2022/03/05 07:01:46;;;;;;;4.82;1.25;;;10.70;99.90;;;;;;5051922;28;20041;-74
2022/03/05 07:04:13;;;;;;;4.03;1.27;;;10.60;99.90;;;;;;5038212;28;20044;-74
2022/03/05 07:06:39;;;;;;;4.82;1.23;;;10.70;99.90;;;;;;5036091;28;20377;-74
2022/03/05 07:09:05;;;;;;;3.67;1.10;;;10.60;99.90;;;;;;5038438;28;20102;-74
2022/03/05 07:11:31;;;;;;;8.05;2.13;;;10.50;99.90;;;;;;5038712;28;20095;-75
2022/03/05 07:13:59;;;;;;;3.63;1.33;;;10.40;99.90;;;;;;5041449;28;20041;-75
2022/03/05 07:16:25;;;;;;;5.28;1.38;;;10.40;99.90;;;;;;5055480;28;20041;-74
2022/03/05 07:18:52;;;;;;;2.95;1.10;;;10.20;99.90;;;;;;5052803;28;20067;-74
2022/03/05 07:21:18;;;;;;;6.90;1.40;;;10.20;99.90;;;;;;5039300;28;20045;-74
2022/03/05 07:23:44;;;;;;;12.88;1.50;;;10.20;99.90;;;;;;5055474;28;20099;-76
2022/03/05 07:26:10;;;;;;;4.45;1.38;;;10.20;99.90;;;;;;5054889;28;20052;-75
2022/03/05 07:28:36;;;;;;;4.38;1.33;;;10.30;99.90;;;;;;5045417;28;20044;-76
2022/03/05 07:31:03;;;;;;;4.43;1.23;;;10.30;99.90;;;;;;5043129;28;20033;-75
2022/03/05 07:33:29;;;;;;;4.28;1.27;;;10.30;99.90;;;;;;5037620;28;20037;-75
2022/03/05 07:35:55;;;;;;;2.97;1.10;;;10.40;99.90;;;;;;5054494;28;20033;-75
2022/03/05 07:38:23;;;;;;;3.90;1.20;;;10.40;99.90;;;;;;5039926;28;20143;-75
2022/03/05 07:40:49;;;;;;;2.85;1.20;;;10.40;99.90;;;;;;5040360;28;20033;-73
2022/03/05 07:43:15;;;;;;;4.53;1.42;;;10.30;99.90;;;;;;5053070;28;20037;-74
2022/03/05 07:45:41;;;;;;;5.85;1.48;;;10.40;99.90;;;;;;5059127;28;20041;-75
2022/03/05 07:48:08;;;;;;;3.70;1.30;;;10.40;99.90;;;;;;5050584;28;20041;-74
2022/03/05 07:50:34;;;;;;;4.85;1.10;;;10.50;99.90;;;;;;5039240;28;20381;-74
2022/03/05 07:53:01;;;;;;;4.20;1.35;;;10.60;99.90;;;;;;5039042;28;20559;-74
2022/03/05 07:55:27;;;;;;;9.05;1.35;;;10.70;99.90;;;;;;5031054;28;20223;-75
2022/03/05 07:57:54;;;;;;;5.90;1.60;;;10.80;99.90;;;;;;5042137;28;20520;-76
2022/03/05 08:00:22;;;;;;;3.72;0.98;;;10.80;99.90;;;;;;5039860;28;20045;-75
2022/03/05 08:02:49;;;;;;;7.43;1.73;;;11.00;99.90;;;;;;5057912;28;20044;-74
2022/03/05 08:05:15;;;;;;;5.68;1.40;;;11.00;99.90;;;;;;5042296;28;20090;-75
2022/03/05 08:07:42;;;;;;;8.55;1.60;;;11.00;99.90;;;;;;5057859;28;20436;-75
2022/03/05 08:10:09;;;;;;;3.25;1.17;;;11.10;99.90;;;;;;5039573;28;20120;-75
2022/03/05 08:12:36;;;;;;;4.05;1.40;;;11.10;99.90;;;;;;5041713;28;20034;-74
2022/03/05 08:15:04;;;;;;;4.95;1.10;;;11.20;99.90;;;;;;5036240;28;20120;-75
2022/03/05 08:17:30;;;;;;;3.17;1.40;;;11.30;99.90;;;;;;5042385;28;20074;-77
2022/03/05 08:19:56;;;;;;;6.05;1.40;;;11.40;99.90;;;;;;5041079;28;20074;-74
2022/03/05 08:22:23;;;;;;;3.88;1.30;;;11.50;99.90;;;;;;5051563;28;20037;-75
2022/03/05 08:24:50;;;;;;;3.90;1.33;;;11.50;99.90;;;;;;5040645;28;20065;-75
2022/03/05 08:27:16;;;;;;;4.38;1.15;;;11.50;99.90;;;;;;5037236;28;20033;-75
2022/03/05 08:29:43;;;;;;;5.50;1.20;;;11.50;99.90;;;;;;5052882;28;20033;-76
2022/03/05 08:32:10;;;;;;;5.15;1.50;;;11.60;99.90;;;;;;5047462;28;20045;-74
2022/03/05 08:34:36;;;;;;;3.25;1.35;;;11.60;99.90;;;;;;5036936;28;20439;-76
2022/03/05 08:37:03;;;;;;;4.75;1.50;;;11.90;99.90;;;;;;5041287;28;20039;-77
2022/03/05 08:39:30;;;;;;;3.50;1.33;;;13.60;98.80;;;;;;5062213;28;20032;-76
2022/03/05 08:41:56;;;;;;;6.35;1.13;;;14.50;97.30;;;;;;5057715;28;20400;-76
2022/03/05 08:44:23;;;;;;;5.47;1.63;;;15.10;96.30;;;;;;5039077;28;20045;-77
2022/03/05 08:46:48;;;;;;;5.95;1.30;;;15.30;95.90;;;;;;5045490;28;20044;-77
2022/03/05 08:49:15;;;;;;;3.50;1.33;;;15.50;95.60;;;;;;5059560;28;20090;-77
2022/03/05 08:51:41;;;;;;;4.30;1.77;;;15.80;94.90;;;;;;5060282;28;20393;-78
2022/03/05 08:54:08;;;;;;;3.17;1.65;;;16.10;94.90;;;;;;5038808;28;20052;-76
2022/03/05 08:56:34;;;;;;;4.00;1.50;;;16.60;94.10;;;;;;5031152;28;20646;-80
2022/03/05 08:59:00;;;;;;;4.70;1.50;;;16.80;93.50;;;;;;5037100;28;20121;-77
2022/03/05 09:01:26;;;;;;;3.72;1.20;;;17.10;93.30;;;;;;5041811;28;20517;-77
2022/03/05 09:03:52;;;;;;;4.50;1.25;;;17.20;93.10;;;;;;5045386;28;20127;-78
2022/03/05 09:06:18;;;;;;;5.03;1.20;;;17.60;93.00;;;;;;5040771;28;20053;-77
2022/03/05 09:08:44;;;;;;;5.57;1.55;;;18.00;92.10;;;;;;5051605;28;20037;-78
2022/03/05 09:11:10;;;;;;;3.50;1.33;;;18.00;91.50;;;;;;5036481;28;20049;-79
2022/03/05 09:13:36;;;;;;;7.30;1.50;;;17.50;91.50;;;;;;5050798;28;20033;-78
2022/03/05 09:16:02;;;;;;;2.67;1.20;;;17.50;91.90;;;;;;5053420;28;20041;-78
2022/03/05 09:18:29;;;;;;;5.15;1.30;;;17.90;91.70;;;;;;5036737;28;20142;-77
2022/03/05 09:20:56;;;;;;;5.38;1.20;;;18.20;91.40;;;;;;5042630;28;20064;-77
2022/03/05 09:23:22;;;;;;;2.90;1.50;;;18.40;91.20;;;;;;5037911;28;20182;-77
2022/03/05 09:25:48;;;;;;;5.65;1.42;;;18.80;90.90;;;;;;5038282;28;20048;-78
2022/03/05 09:28:15;;;;;;;6.70;1.50;;;18.50;90.50;;;;;;5039553;28;20053;-76
2022/03/05 09:30:41;;;;;;;2.83;1.40;;;19.00;90.60;;;;;;5038485;28;20037;-76
2022/03/05 09:33:07;;;;;;;7.32;1.50;;;18.90;90.40;;;;;;5042183;28;20048;-77
2022/03/05 09:35:34;;;;;;;6.22;2.00;;;19.30;90.40;;;;;;5041329;28;20052;-77
2022/03/05 09:38:00;;;;;;;4.28;1.45;;;19.30;89.40;;;;;;5040472;28;20044;-77
2022/03/05 09:40:26;;;;;;;7.80;1.60;;;19.30;89.50;;;;;;5041136;28;20461;-77
2022/03/05 09:42:53;;;;;;;7.18;2.05;;;19.40;89.00;;;;;;5061284;28;20029;-77
2022/03/05 09:45:19;;;;;;;4.90;1.70;;;19.30;89.40;;;;;;5043275;28;20093;-78
2022/03/05 09:47:45;;;;;;;3.95;1.48;;;18.90;89.10;;;;;;5043161;28;20048;-77
2022/03/05 09:50:11;;;;;;;4.55;1.75;;;18.80;89.80;;;;;;5051438;28;20033;-78
2022/03/05 09:52:38;;;;;;;4.82;1.63;;;18.70;89.80;;;;;;5047617;28;20044;-78
2022/03/05 09:55:04;;;;;;;4.05;1.38;;;18.30;90.00;;;;;;5057485;28;20037;-77
2022/03/05 09:57:31;;;;;;;3.72;1.40;;;17.30;90.60;;;;;;5060761;28;20099;-79
2022/03/05 09:59:58;;;;;;;4.57;1.63;;;17.00;91.00;;;;;;5064622;28;20033;-79
2022/03/05 10:02:25;;;;;;;4.25;1.48;;;17.10;91.30;;;;;;5047643;28;20029;-80
2022/03/05 10:04:50;;;;;;;4.30;1.30;;;16.40;91.20;;;;;;5042237;28;20131;-78
2022/03/05 10:07:18;;;;;;;6.20;1.45;;;16.70;91.40;;;;;;5043138;28;20167;-76
2022/03/05 10:09:48;;;;;;;6.05;1.65;;;16.40;91.80;;;;;;5044437;28;20435;-78
2022/03/05 10:12:34;;;;;;;3.92;1.33;;;16.00;92.30;;;;;;5041365;28;20127;-79
2022/03/05 10:15:11;;;;;;;4.75;1.52;;;16.90;91.90;;;;;;5046204;28;20025;-77
2022/03/05 10:17:57;;;;;;;4.88;1.70;;;17.30;91.40;;;;;;5026230;28;20454;-76
2022/03/05 10:20:30;;;;;;;4.82;1.50;;;17.30;91.20;;;;;;5053697;28;20516;-78
2022/03/05 10:23:00;;;;;;;5.30;1.52;;;17.80;91.00;;;;;;5039775;28;20352;-77
2022/03/05 10:25:42;;;;;;;7.18;1.60;;;18.00;91.00;;;;;;5053567;28;20040;-77
2022/03/05 10:28:15;;;;;;;4.47;1.35;;;18.50;90.50;;;;;;5037848;28;20033;-77
2022/03/05 10:30:51;;;;;;;3.25;1.38;;;18.00;90.50;;;;;;5039580;28;20044;-77
2022/03/05 10:33:33;;;;;;;3.60;1.15;;;19.10;90.10;;;;;;5036120;28;20135;-76
2022/03/05 10:36:02;;;;;;;5.00;1.42;;;18.20;90.20;;;;;;5035275;28;20057;-75
2022/03/05 10:38:48;;;;;;;4.85;1.58;;;17.80;90.60;;;;;;5046416;28;20465;-77
2022/03/05 10:41:17;;;;;;;4.30;1.50;;;17.80;90.70;;;;;;5037558;28;20046;-76
2022/03/05 10:43:47;;;;;;;6.03;1.77;;;17.50;91.00;;;;;;5043196;28;20099;-78
2022/03/05 10:46:13;;;;;;;4.63;1.50;;;17.20;91.50;;;;;;5039873;28;20033;-76
2022/03/05 10:48:43;;;;;;;5.07;1.63;;;16.70;91.50;;;;;;5042346;28;20041;-77
2022/03/05 10:51:15;;;;;;;3.80;1.85;;;16.90;91.70;;;;;;5042559;28;20037;-76
2022/03/05 10:53:44;;;;;;;4.25;1.35;;;16.20;92.40;;;;;;5047120;28;20044;-76
2022/03/05 10:56:37;;;;;;;4.32;1.45;;;16.60;92.10;;;;;;5041695;28;20053;-76
2022/03/05 10:59:12;;;;;;;5.07;1.42;;;16.40;91.90;;;;;;5037975;28;20523;-78
2022/03/05 11:01:41;;;;;;;6.70;1.60;;;17.20;91.50;;;;;;5058654;28;20049;-77
2022/03/05 11:04:10;;;;;;;3.83;1.70;;;17.90;91.20;;;;;;5040883;28;20459;-78
2022/03/05 11:06:38;;;;;;;4.10;1.35;;;17.50;90.90;;;;;;5049360;28;20064;-78
2022/03/05 11:09:07;;;;;;;4.05;1.70;;;17.80;91.20;;;;;;5043819;28;20041;-77
2022/03/05 11:11:36;;;;;;;3.50;1.67;;;18.80;90.10;;;;;;5040513;28;20125;-76
2022/03/05 11:14:02;;;;;;;4.05;1.60;;;18.00;90.60;;;;;;5060672;28;20037;-78
2022/03/05 11:16:30;;;;;;;8.52;2.08;;;17.80;90.60;;;;;;5058298;28;20141;-78
2022/03/05 11:18:57;;;;;;;6.35;2.10;;;17.70;91.00;;;;;;5054912;28;20032;-77
2022/03/05 11:21:25;;;;;;;7.60;2.22;;;17.90;90.90;;;;;;5033037;28;20044;-75
2022/03/05 11:23:51;;;;;;;5.97;1.70;;;17.40;90.90;;;;;;5042988;28;20488;-78
2022/03/05 11:26:17;;;;;;;6.25;2.00;;;16.80;91.00;;;;;;5044493;28;20390;-75
2022/03/05 11:28:50;;;;;;;4.88;1.90;;;16.80;91.30;;;;;;5045409;28;20052;-76
2022/03/05 11:31:20;;;;;;;;;;;16.80;91.70;;;;;;5044809;28;20036;-76
2022/03/05 11:33:49;;;;;;;3.92;2.15;;;17.30;91.50;;;;;;5056397;28;20537;-75
2022/03/05 11:36:32;;;;;;;4.20;1.80;;;17.40;91.20;;;;;;5042067;28;20630;-76
2022/03/05 11:39:17;;;;;;;5.10;2.00;;;16.90;91.40;;;;;;5056843;28;20519;-76
2022/03/05 11:41:50;;;;;;;4.63;1.88;;;16.80;91.70;;;;;;5038664;28;20219;-75
2022/03/05 11:44:18;;;;;;;4.65;2.33;;;16.80;92.10;;;;;;5032639;28;20424;-76
2022/03/05 11:46:46;;;;;;;8.73;2.30;;;16.60;91.80;;;;;;5033565;28;20754;-76
2022/03/05 11:49:14;;;;;;;6.07;1.80;;;16.20;91.90;;;;;;5029513;28;20607;-76
2022/03/05 11:51:58;;;;;;;3.22;1.75;;;15.80;92.50;;;;;;5042881;28;20037;-76
2022/03/05 11:54:26;;;;;;;5.35;1.85;;;16.20;92.30;;;;;;5032064;28;20081;-74
2022/03/05 11:57:14;;;;;;;3.40;1.58;;;16.60;92.20;;;;;;5032523;28;20132;-74
2022/03/05 11:59:51;;;;;;;3.67;1.58;;;16.30;92.10;;;;;;5034148;28;20089;-75
2022/03/05 12:02:43;;;;;;;4.75;1.60;;;16.30;92.10;;;;;;5030228;28;20523;-75
2022/03/05 12:05:09;;;;;;;4.30;2.20;;;17.30;91.80;;;;;;5047295;28;20033;-74
2022/03/05 12:07:38;;;;;;;4.85;1.95;;;18.40;91.00;;;;;;5032680;28;20537;-75
2022/03/05 12:10:14;;;;;;;4.15;2.08;;;18.00;90.90;;;;;;5047855;28;20040;-75
2022/03/05 12:12:58;;;;;;;3.42;1.30;;;18.40;90.40;;;;;;5032766;28;20041;-75
2022/03/05 12:15:34;;;;;;;4.55;1.60;;;18.30;90.30;;;;;;5034805;28;21339;-74
2022/03/05 12:18:03;;;;;;;4.80;1.85;;;17.90;90.90;;;;;;5032705;28;20048;-76
2022/03/05 12:20:36;;;;;;;5.53;1.98;;;18.50;90.60;;;;;;5032366;28;20072;-77
2022/03/05 12:23:08;;;;;;;3.78;1.60;;;18.50;90.40;;;;;;5030826;28;20033;-75
2022/03/05 12:25:40;;;;;;;4.20;1.60;;;18.10;90.60;;;;;;5049478;28;20047;-75
2022/03/05 12:28:12;;;;;;;;;;;17.90;91.00;;;;;;5033927;28;20305;-75
2022/03/05 12:30:39;;;;;;;5.70;1.55;;;17.90;91.00;;;;;;5029922;28;19940;-75
2022/03/05 12:33:11;;;;;;;7.35;1.92;;;17.70;91.10;;;;;;5030089;28;20069;-76
2022/03/05 12:35:40;;;;;;;4.30;1.60;;;17.00;91.90;;;;;;5031989;28;20047;-76
2022/03/05 12:38:07;;;;;;;6.38;4.25;;;17.40;91.80;;;;;;5032598;28;20055;-76
2022/03/05 12:40:34;;;;;;;8.00;2.10;;;17.60;91.80;;;;;;5017639;28;20049;-76
2022/03/05 12:43:04;;;;;;;8.43;2.05;;;17.60;91.50;;;;;;5049981;28;20033;-75
2022/03/05 12:45:33;;;;;;;7.22;1.77;;;17.70;91.60;;;;;;5028261;28;20068;-75
2022/03/05 12:48:12;;;;;;;5.78;1.98;;;17.90;91.50;;;;;;5043813;28;20048;-75
2022/03/05 12:50:50;;;;;;;6.10;1.70;;;18.10;90.90;;;;;;5026090;28;20400;-74
2022/03/05 12:53:19;;;;;;;9.82;5.25;;;17.80;91.30;;;;;;5042925;28;20048;-75